sensor_id;sensor_type;location;lat;lon;timestamp;P1;durP1;ratioP1;P2;durP2;ratioP2
21754;SDS011;11039;50.028;19.938;2023-05-01T00:00:48;5.30;;;3.70;;
21754;SDS011;11039;50.028;19.938;2023-05-01T00:03:14;6.03;;;3.50;;
21754;SDS011;11039;50.028;19.938;2023-05-01T00:05:42;5.10;;;4.03;;
21754;SDS011;11039;50.028;19.938;2023-05-01T00:08:08;6.60;;;4.13;;
21754;SDS011;11039;50.028;19.938;2023-05-01T00:10:35;5.55;;;3.88;;
21754;SDS011;11039;50.028;19.938;2023-05-01T00:13:01;5.63;;;3.92;;
21754;SDS011;11039;50.028;19.938;2023-05-01T00:15:27;4.78;;;3.63;;
21754;SDS011;11039;50.028;19.938;2023-05-01T00:17:53;4.80;;;3.60;;
21754;SDS011;11039;50.028;19.938;2023-05-01T00:20:19;5.18;;;3.85;;
21754;SDS011;11039;50.028;19.938;2023-05-01T00:22:47;5.50;;;3.90;;
21754;SDS011;11039;50.028;19.938;2023-05-01T00:25:13;5.68;;;3.75;;
21754;SDS011;11039;50.028;19.938;2023-05-01T00:27:39;5.15;;;3.83;;
21754;SDS011;11039;50.028;19.938;2023-05-01T00:30:06;5.63;;;3.63;;
21754;SDS011;11039;50.028;19.938;2023-05-01T00:32:32;5.22;;;3.75;;
21754;SDS011;11039;50.028;19.938;2023-05-01T00:34:58;5.22;;;3.70;;
21754;SDS011;11039;50.028;19.938;2023-05-01T00:37:24;5.20;;;3.83;;
21754;SDS011;11039;50.028;19.938;2023-05-01T00:39:50;6.75;;;3.65;;
21754;SDS011;11039;50.028;19.938;2023-05-01T00:42:16;5.65;;;3.85;;
21754;SDS011;11039;50.028;19.938;2023-05-01T00:44:43;6.07;;;3.78;;
21754;SDS011;11039;50.028;19.938;2023-05-01T00:47:09;4.13;;;3.40;;
21754;SDS011;11039;50.028;19.938;2023-05-01T00:49:35;4.85;;;3.60;;
21754;SDS011;11039;50.028;19.938;2023-05-01T00:52:01;4.68;;;3.42;;
21754;SDS011;11039;50.028;19.938;2023-05-01T00:54:27;5.43;;;3.58;;
21754;SDS011;11039;50.028;19.938;2023-05-01T00:56:53;5.20;;;3.80;;
21754;SDS011;11039;50.028;19.938;2023-05-01T00:59:20;4.80;;;3.55;;
21754;SDS011;11039;50.028;19.938;2023-05-01T01:01:46;4.28;;;3.65;;
21754;SDS011;11039;50.028;19.938;2023-05-01T01:04:12;4.60;;;3.65;;
21754;SDS011;11039;50.028;19.938;2023-05-01T01:11:52;5.18;;;3.85;;
21754;SDS011;11039;50.028;19.938;2023-05-01T01:14:24;4.90;;;3.97;;
21754;SDS011;11039;50.028;19.938;2023-05-01T01:17:06;6.15;;;3.90;;
21754;SDS011;11039;50.028;19.938;2023-05-01T01:19:51;6.00;;;3.60;;
21754;SDS011;11039;50.028;19.938;2023-05-01T01:22:19;5.15;;;3.65;;
21754;SDS011;11039;50.028;19.938;2023-05-01T01:24:55;5.00;;;3.85;;
21754;SDS011;11039;50.028;19.938;2023-05-01T01:32:43;5.68;;;3.83;;
21754;SDS011;11039;50.028;19.938;2023-05-01T01:35:17;5.22;;;3.80;;
21754;SDS011;11039;50.028;19.938;2023-05-01T01:37:56;5.20;;;3.70;;
21754;SDS011;11039;50.028;19.938;2023-05-01T01:40:23;5.45;;;3.72;;
21754;SDS011;11039;50.028;19.938;2023-05-01T01:43:01;4.97;;;3.70;;
21754;SDS011;11039;50.028;19.938;2023-05-01T01:45:33;5.28;;;3.70;;
21754;SDS011;11039;50.028;19.938;2023-05-01T01:48:01;5.53;;;3.78;;
21754;SDS011;11039;50.028;19.938;2023-05-01T01:50:27;4.97;;;3.45;;
21754;SDS011;11039;50.028;19.938;2023-05-01T01:52:53;3.90;;;3.22;;
21754;SDS011;11039;50.028;19.938;2023-05-01T01:55:21;4.90;;;3.10;;
21754;SDS011;11039;50.028;19.938;2023-05-01T01:57:47;4.60;;;3.40;;
21754;SDS011;11039;50.028;19.938;2023-05-01T02:00:14;5.40;;;3.63;;
21754;SDS011;11039;50.028;19.938;2023-05-01T02:02:40;5.60;;;3.58;;
21754;SDS011;11039;50.028;19.938;2023-05-01T02:05:07;5.38;;;3.85;;
21754;SDS011;11039;50.028;19.938;2023-05-01T02:07:34;4.18;;;3.47;;
21754;SDS011;11039;50.028;19.938;2023-05-01T02:10:02;5.05;;;3.60;;
21754;SDS011;11039;50.028;19.938;2023-05-01T02:12:29;5.68;;;3.60;;
21754;SDS011;11039;50.028;19.938;2023-05-01T02:14:57;5.40;;;3.53;;
21754;SDS011;11039;50.028;19.938;2023-05-01T02:17:23;5.00;;;3.60;;
21754;SDS011;11039;50.028;19.938;2023-05-01T02:19:51;5.75;;;3.80;;
21754;SDS011;11039;50.028;19.938;2023-05-01T02:22:19;4.97;;;3.53;;
21754;SDS011;11039;50.028;19.938;2023-05-01T02:24:46;5.57;;;3.90;;
21754;SDS011;11039;50.028;19.938;2023-05-01T02:27:20;4.03;;;3.53;;
21754;SDS011;11039;50.028;19.938;2023-05-01T02:29:49;4.78;;;3.53;;
21754;SDS011;11039;50.028;19.938;2023-05-01T02:32:16;5.32;;;3.80;;
21754;SDS011;11039;50.028;19.938;2023-05-01T02:34:42;5.10;;;3.33;;
21754;SDS011;11039;50.028;19.938;2023-05-01T02:37:09;5.43;;;3.47;;
21754;SDS011;11039;50.028;19.938;2023-05-01T02:39:36;4.45;;;3.53;;
21754;SDS011;11039;50.028;19.938;2023-05-01T02:42:02;4.85;;;3.42;;
21754;SDS011;11039;50.028;19.938;2023-05-01T02:44:39;4.68;;;3.45;;
21754;SDS011;11039;50.028;19.938;2023-05-01T02:47:06;4.68;;;3.50;;
21754;SDS011;11039;50.028;19.938;2023-05-01T02:49:33;4.65;;;3.63;;
21754;SDS011;11039;50.028;19.938;2023-05-01T02:52:00;5.35;;;3.50;;
21754;SDS011;11039;50.028;19.938;2023-05-01T02:54:29;5.65;;;3.67;;
21754;SDS011;11039;50.028;19.938;2023-05-01T02:56:55;4.15;;;3.05;;
21754;SDS011;11039;50.028;19.938;2023-05-01T02:59:23;4.85;;;3.67;;
21754;SDS011;11039;50.028;19.938;2023-05-01T03:01:49;4.15;;;3.25;;
21754;SDS011;11039;50.028;19.938;2023-05-01T03:04:15;5.47;;;3.92;;
21754;SDS011;11039;50.028;19.938;2023-05-01T03:06:42;4.63;;;3.50;;
21754;SDS011;11039;50.028;19.938;2023-05-01T03:09:08;4.88;;;3.55;;
21754;SDS011;11039;50.028;19.938;2023-05-01T03:11:35;6.18;;;3.88;;
21754;SDS011;11039;50.028;19.938;2023-05-01T03:14:01;4.38;;;3.10;;
21754;SDS011;11039;50.028;19.938;2023-05-01T03:16:27;4.70;;;3.60;;
21754;SDS011;11039;50.028;19.938;2023-05-01T03:18:53;4.38;;;3.35;;
21754;SDS011;11039;50.028;19.938;2023-05-01T03:21:20;4.63;;;3.70;;
21754;SDS011;11039;50.028;19.938;2023-05-01T03:23:46;4.75;;;3.30;;
21754;SDS011;11039;50.028;19.938;2023-05-01T03:26:13;5.20;;;3.75;;
21754;SDS011;11039;50.028;19.938;2023-05-01T03:28:39;4.70;;;3.65;;
21754;SDS011;11039;50.028;19.938;2023-05-01T03:31:05;5.30;;;3.30;;
21754;SDS011;11039;50.028;19.938;2023-05-01T03:33:31;4.38;;;3.60;;
21754;SDS011;11039;50.028;19.938;2023-05-01T03:36:01;4.40;;;3.25;;
21754;SDS011;11039;50.028;19.938;2023-05-01T03:38:27;4.35;;;3.28;;
21754;SDS011;11039;50.028;19.938;2023-05-01T03:40:53;4.80;;;3.58;;
21754;SDS011;11039;50.028;19.938;2023-05-01T03:43:20;5.10;;;3.38;;
21754;SDS011;11039;50.028;19.938;2023-05-01T03:45:46;4.80;;;3.60;;
21754;SDS011;11039;50.028;19.938;2023-05-01T03:48:12;4.53;;;3.20;;
21754;SDS011;11039;50.028;19.938;2023-05-01T03:50:38;3.90;;;3.30;;
21754;SDS011;11039;50.028;19.938;2023-05-01T03:53:04;5.82;;;3.63;;
21754;SDS011;11039;50.028;19.938;2023-05-01T03:55:30;4.60;;;3.55;;
21754;SDS011;11039;50.028;19.938;2023-05-01T03:57:56;4.95;;;3.60;;
21754;SDS011;11039;50.028;19.938;2023-05-01T04:00:22;4.93;;;3.28;;
21754;SDS011;11039;50.028;19.938;2023-05-01T04:02:48;4.35;;;3.42;;
21754;SDS011;11039;50.028;19.938;2023-05-01T04:05:14;4.65;;;3.40;;
21754;SDS011;11039;50.028;19.938;2023-05-01T04:07:41;4.18;;;3.20;;
21754;SDS011;11039;50.028;19.938;2023-05-01T04:10:07;4.93;;;3.40;;
21754;SDS011;11039;50.028;19.938;2023-05-01T04:12:34;5.65;;;2.92;;
21754;SDS011;11039;50.028;19.938;2023-05-01T04:15:00;6.10;;;3.78;;
21754;SDS011;11039;50.028;19.938;2023-05-01T04:17:29;4.82;;;3.47;;
21754;SDS011;11039;50.028;19.938;2023-05-01T04:19:55;5.45;;;4.00;;
21754;SDS011;11039;50.028;19.938;2023-05-01T04:22:22;5.20;;;3.70;;
21754;SDS011;11039;50.028;19.938;2023-05-01T04:24:48;5.53;;;3.72;;
21754;SDS011;11039;50.028;19.938;2023-05-01T04:27:15;4.00;;;3.20;;
21754;SDS011;11039;50.028;19.938;2023-05-01T04:29:41;4.90;;;3.58;;
21754;SDS011;11039;50.028;19.938;2023-05-01T04:32:07;5.15;;;3.20;;
21754;SDS011;11039;50.028;19.938;2023-05-01T04:34:34;5.70;;;3.47;;
21754;SDS011;11039;50.028;19.938;2023-05-01T04:37:00;4.03;;;3.40;;
21754;SDS011;11039;50.028;19.938;2023-05-01T04:39:27;4.68;;;3.17;;
21754;SDS011;11039;50.028;19.938;2023-05-01T04:41:53;5.13;;;3.33;;
21754;SDS011;11039;50.028;19.938;2023-05-01T04:44:19;4.97;;;3.45;;
21754;SDS011;11039;50.028;19.938;2023-05-01T04:46:45;5.03;;;3.17;;
21754;SDS011;11039;50.028;19.938;2023-05-01T04:49:11;4.65;;;3.58;;
21754;SDS011;11039;50.028;19.938;2023-05-01T04:51:37;5.13;;;3.40;;
21754;SDS011;11039;50.028;19.938;2023-05-01T04:54:03;5.00;;;3.67;;
21754;SDS011;11039;50.028;19.938;2023-05-01T04:56:29;4.95;;;3.40;;
21754;SDS011;11039;50.028;19.938;2023-05-01T04:58:55;4.28;;;3.08;;
21754;SDS011;11039;50.028;19.938;2023-05-01T05:01:21;5.57;;;3.30;;
21754;SDS011;11039;50.028;19.938;2023-05-01T05:03:47;5.80;;;3.65;;
21754;SDS011;11039;50.028;19.938;2023-05-01T05:06:13;4.75;;;3.33;;
21754;SDS011;11039;50.028;19.938;2023-05-01T05:08:39;4.82;;;3.58;;
21754;SDS011;11039;50.028;19.938;2023-05-01T05:11:06;4.47;;;3.25;;
21754;SDS011;11039;50.028;19.938;2023-05-01T05:13:32;4.70;;;3.35;;
21754;SDS011;11039;50.028;19.938;2023-05-01T05:15:58;4.63;;;3.20;;
21754;SDS011;11039;50.028;19.938;2023-05-01T05:18:24;5.43;;;3.65;;
21754;SDS011;11039;50.028;19.938;2023-05-01T05:20:50;4.57;;;3.50;;
21754;SDS011;11039;50.028;19.938;2023-05-01T05:23:16;4.53;;;3.40;;
21754;SDS011;11039;50.028;19.938;2023-05-01T05:25:42;5.88;;;3.30;;
21754;SDS011;11039;50.028;19.938;2023-05-01T05:28:08;4.40;;;3.30;;
21754;SDS011;11039;50.028;19.938;2023-05-01T05:30:34;5.65;;;3.58;;
21754;SDS011;11039;50.028;19.938;2023-05-01T05:33:01;5.10;;;3.55;;
21754;SDS011;11039;50.028;19.938;2023-05-01T05:35:27;4.55;;;3.45;;
21754;SDS011;11039;50.028;19.938;2023-05-01T05:37:53;4.28;;;3.20;;
21754;SDS011;11039;50.028;19.938;2023-05-01T05:40:19;4.40;;;3.40;;
21754;SDS011;11039;50.028;19.938;2023-05-01T05:42:45;5.15;;;3.45;;
21754;SDS011;11039;50.028;19.938;2023-05-01T05:45:11;4.05;;;3.33;;
21754;SDS011;11039;50.028;19.938;2023-05-01T05:47:37;4.85;;;3.05;;
21754;SDS011;11039;50.028;19.938;2023-05-01T05:50:04;5.45;;;3.70;;
21754;SDS011;11039;50.028;19.938;2023-05-01T05:52:31;6.00;;;3.60;;
21754;SDS011;11039;50.028;19.938;2023-05-01T05:54:57;6.82;;;3.80;;
21754;SDS011;11039;50.028;19.938;2023-05-01T05:57:23;5.35;;;3.28;;
21754;SDS011;11039;50.028;19.938;2023-05-01T05:59:49;5.20;;;4.00;;
21754;SDS011;11039;50.028;19.938;2023-05-01T06:02:15;4.78;;;3.35;;
21754;SDS011;11039;50.028;19.938;2023-05-01T06:04:41;5.18;;;3.97;;
21754;SDS011;11039;50.028;19.938;2023-05-01T06:07:07;4.68;;;3.50;;
21754;SDS011;11039;50.028;19.938;2023-05-01T06:09:33;4.95;;;3.55;;
21754;SDS011;11039;50.028;19.938;2023-05-01T06:12:00;6.20;;;3.90;;
21754;SDS011;11039;50.028;19.938;2023-05-01T06:14:28;6.47;;;3.85;;
21754;SDS011;11039;50.028;19.938;2023-05-01T06:16:54;4.93;;;3.65;;
21754;SDS011;11039;50.028;19.938;2023-05-01T06:19:20;4.65;;;3.42;;
21754;SDS011;11039;50.028;19.938;2023-05-01T06:21:46;4.82;;;3.70;;
21754;SDS011;11039;50.028;19.938;2023-05-01T06:24:12;4.95;;;3.40;;
21754;SDS011;11039;50.028;19.938;2023-05-01T06:26:39;4.68;;;3.55;;
21754;SDS011;11039;50.028;19.938;2023-05-01T06:29:05;5.60;;;4.03;;
21754;SDS011;11039;50.028;19.938;2023-05-01T06:31:31;6.53;;;3.58;;
21754;SDS011;11039;50.028;19.938;2023-05-01T06:33:57;6.22;;;3.80;;
21754;SDS011;11039;50.028;19.938;2023-05-01T06:36:23;5.22;;;3.78;;
21754;SDS011;11039;50.028;19.938;2023-05-01T06:38:50;4.93;;;3.47;;
21754;SDS011;11039;50.028;19.938;2023-05-01T06:41:16;4.90;;;3.42;;
21754;SDS011;11039;50.028;19.938;2023-05-01T06:43:42;4.95;;;3.63;;
21754;SDS011;11039;50.028;19.938;2023-05-01T06:46:08;6.03;;;4.10;;
21754;SDS011;11039;50.028;19.938;2023-05-01T06:48:34;3.92;;;3.50;;
21754;SDS011;11039;50.028;19.938;2023-05-01T06:51:00;4.97;;;3.65;;
21754;SDS011;11039;50.028;19.938;2023-05-01T06:53:26;4.88;;;3.63;;
21754;SDS011;11039;50.028;19.938;2023-05-01T06:55:52;4.70;;;3.50;;
21754;SDS011;11039;50.028;19.938;2023-05-01T06:58:18;4.63;;;3.47;;
21754;SDS011;11039;50.028;19.938;2023-05-01T07:00:44;4.57;;;3.67;;
21754;SDS011;11039;50.028;19.938;2023-05-01T07:03:10;6.13;;;3.72;;
21754;SDS011;11039;50.028;19.938;2023-05-01T07:05:37;6.47;;;3.80;;
21754;SDS011;11039;50.028;19.938;2023-05-01T07:08:04;5.68;;;3.88;;
21754;SDS011;11039;50.028;19.938;2023-05-01T07:10:31;5.38;;;3.88;;
21754;SDS011;11039;50.028;19.938;2023-05-01T07:12:58;4.88;;;3.80;;
21754;SDS011;11039;50.028;19.938;2023-05-01T07:15:24;5.25;;;3.65;;
21754;SDS011;11039;50.028;19.938;2023-05-01T07:17:50;5.10;;;3.53;;
21754;SDS011;11039;50.028;19.938;2023-05-01T07:20:16;4.70;;;3.75;;
21754;SDS011;11039;50.028;19.938;2023-05-01T07:22:43;5.82;;;3.33;;
21754;SDS011;11039;50.028;19.938;2023-05-01T07:25:09;5.03;;;3.67;;
21754;SDS011;11039;50.028;19.938;2023-05-01T07:27:35;4.82;;;3.30;;
21754;SDS011;11039;50.028;19.938;2023-05-01T07:30:01;4.65;;;3.35;;
21754;SDS011;11039;50.028;19.938;2023-05-01T07:32:29;4.47;;;3.00;;
21754;SDS011;11039;50.028;19.938;2023-05-01T07:34:57;5.15;;;3.05;;
21754;SDS011;11039;50.028;19.938;2023-05-01T07:37:23;5.80;;;3.80;;
21754;SDS011;11039;50.028;19.938;2023-05-01T07:39:50;7.10;;;4.10;;
21754;SDS011;11039;50.028;19.938;2023-05-01T07:42:16;4.93;;;3.38;;
21754;SDS011;11039;50.028;19.938;2023-05-01T07:44:42;5.97;;;3.35;;
21754;SDS011;11039;50.028;19.938;2023-05-01T07:47:08;4.75;;;3.35;;
21754;SDS011;11039;50.028;19.938;2023-05-01T07:49:35;4.63;;;3.00;;
21754;SDS011;11039;50.028;19.938;2023-05-01T07:52:02;4.95;;;3.50;;
21754;SDS011;11039;50.028;19.938;2023-05-01T07:54:29;5.68;;;3.42;;
21754;SDS011;11039;50.028;19.938;2023-05-01T07:56:55;5.95;;;3.20;;
21754;SDS011;11039;50.028;19.938;2023-05-01T07:59:21;4.78;;;3.28;;
21754;SDS011;11039;50.028;19.938;2023-05-01T08:01:47;5.25;;;3.33;;
21754;SDS011;11039;50.028;19.938;2023-05-01T08:04:13;5.25;;;3.20;;
21754;SDS011;11039;50.028;19.938;2023-05-01T08:06:41;5.30;;;3.20;;
21754;SDS011;11039;50.028;19.938;2023-05-01T08:09:07;4.32;;;3.13;;
21754;SDS011;11039;50.028;19.938;2023-05-01T08:11:33;5.15;;;3.05;;
21754;SDS011;11039;50.028;19.938;2023-05-01T08:14:00;4.93;;;2.97;;
21754;SDS011;11039;50.028;19.938;2023-05-01T08:16:26;5.28;;;3.28;;
21754;SDS011;11039;50.028;19.938;2023-05-01T08:18:52;6.03;;;3.30;;
21754;SDS011;11039;50.028;19.938;2023-05-01T08:21:18;4.40;;;3.10;;
21754;SDS011;11039;50.028;19.938;2023-05-01T08:23:44;4.47;;;3.17;;
21754;SDS011;11039;50.028;19.938;2023-05-01T08:26:10;4.43;;;3.00;;
21754;SDS011;11039;50.028;19.938;2023-05-01T08:28:36;4.15;;;3.10;;
21754;SDS011;11039;50.028;19.938;2023-05-01T08:31:02;4.40;;;3.30;;
21754;SDS011;11039;50.028;19.938;2023-05-01T08:33:28;5.43;;;3.10;;
21754;SDS011;11039;50.028;19.938;2023-05-01T08:35:54;4.25;;;3.10;;
21754;SDS011;11039;50.028;19.938;2023-05-01T08:38:21;4.65;;;2.88;;
21754;SDS011;11039;50.028;19.938;2023-05-01T08:40:50;4.75;;;3.03;;
21754;SDS011;11039;50.028;19.938;2023-05-01T08:43:17;4.60;;;2.83;;
21754;SDS011;11039;50.028;19.938;2023-05-01T08:45:43;3.33;;;2.45;;
21754;SDS011;11039;50.028;19.938;2023-05-01T08:48:11;3.47;;;2.67;;
21754;SDS011;11039;50.028;19.938;2023-05-01T08:50:38;3.80;;;2.53;;
21754;SDS011;11039;50.028;19.938;2023-05-01T08:53:04;3.63;;;2.72;;
21754;SDS011;11039;50.028;19.938;2023-05-01T08:55:31;4.63;;;3.20;;
21754;SDS011;11039;50.028;19.938;2023-05-01T08:57:58;3.78;;;2.53;;
21754;SDS011;11039;50.028;19.938;2023-05-01T09:00:24;4.75;;;2.70;;
21754;SDS011;11039;50.028;19.938;2023-05-01T09:02:51;4.47;;;3.03;;
21754;SDS011;11039;50.028;19.938;2023-05-01T09:05:18;4.72;;;2.92;;
21754;SDS011;11039;50.028;19.938;2023-05-01T09:07:45;3.83;;;2.60;;
21754;SDS011;11039;50.028;19.938;2023-05-01T09:10:11;4.45;;;2.65;;
21754;SDS011;11039;50.028;19.938;2023-05-01T09:12:38;4.63;;;3.15;;
21754;SDS011;11039;50.028;19.938;2023-05-01T09:15:05;3.42;;;2.58;;
21754;SDS011;11039;50.028;19.938;2023-05-01T09:17:31;4.40;;;2.60;;
21754;SDS011;11039;50.028;19.938;2023-05-01T09:20:00;3.20;;;2.65;;
21754;SDS011;11039;50.028;19.938;2023-05-01T09:22:26;3.83;;;2.78;;
21754;SDS011;11039;50.028;19.938;2023-05-01T09:24:54;3.92;;;2.55;;
21754;SDS011;11039;50.028;19.938;2023-05-01T09:27:20;3.25;;;2.45;;
21754;SDS011;11039;50.028;19.938;2023-05-01T09:29:47;4.20;;;2.90;;
21754;SDS011;11039;50.028;19.938;2023-05-01T09:34:40;4.13;;;2.45;;
21754;SDS011;11039;50.028;19.938;2023-05-01T09:37:09;4.07;;;2.63;;
21754;SDS011;11039;50.028;19.938;2023-05-01T09:39:35;4.30;;;2.95;;
21754;SDS011;11039;50.028;19.938;2023-05-01T09:42:01;3.85;;;2.42;;
21754;SDS011;11039;50.028;19.938;2023-05-01T09:44:27;3.63;;;2.17;;
21754;SDS011;11039;50.028;19.938;2023-05-01T09:46:53;3.38;;;2.40;;
21754;SDS011;11039;50.028;19.938;2023-05-01T09:49:19;4.68;;;2.60;;
21754;SDS011;11039;50.028;19.938;2023-05-01T09:52:14;3.95;;;2.55;;
21754;SDS011;11039;50.028;19.938;2023-05-01T09:54:41;4.07;;;2.80;;
21754;SDS011;11039;50.028;19.938;2023-05-01T09:57:07;3.50;;;2.20;;
21754;SDS011;11039;50.028;19.938;2023-05-01T09:59:33;3.55;;;2.55;;
21754;SDS011;11039;50.028;19.938;2023-05-01T10:01:59;3.58;;;2.63;;
21754;SDS011;11039;50.028;19.938;2023-05-01T10:04:29;3.17;;;2.30;;
21754;SDS011;11039;50.028;19.938;2023-05-01T10:06:56;4.03;;;2.65;;
21754;SDS011;11039;50.028;19.938;2023-05-01T10:09:26;3.22;;;2.33;;
21754;SDS011;11039;50.028;19.938;2023-05-01T10:11:54;3.45;;;2.47;;
21754;SDS011;11039;50.028;19.938;2023-05-01T10:14:21;3.42;;;2.42;;
21754;SDS011;11039;50.028;19.938;2023-05-01T10:16:49;3.28;;;2.17;;
21754;SDS011;11039;50.028;19.938;2023-05-01T10:19:16;4.65;;;2.35;;
21754;SDS011;11039;50.028;19.938;2023-05-01T10:21:42;2.63;;;2.30;;
21754;SDS011;11039;50.028;19.938;2023-05-01T10:24:08;3.22;;;2.08;;
21754;SDS011;11039;50.028;19.938;2023-05-01T10:26:35;2.90;;;2.05;;
21754;SDS011;11039;50.028;19.938;2023-05-01T10:29:02;2.92;;;1.70;;
21754;SDS011;11039;50.028;19.938;2023-05-01T10:31:28;3.05;;;2.08;;
21754;SDS011;11039;50.028;19.938;2023-05-01T10:33:56;3.65;;;2.30;;
21754;SDS011;11039;50.028;19.938;2023-05-01T10:36:25;3.70;;;2.38;;
21754;SDS011;11039;50.028;19.938;2023-05-01T10:38:52;2.78;;;2.10;;
21754;SDS011;11039;50.028;19.938;2023-05-01T10:44:19;2.70;;;2.30;;
21754;SDS011;11039;50.028;19.938;2023-05-01T10:46:45;3.03;;;1.98;;
21754;SDS011;11039;50.028;19.938;2023-05-01T10:49:11;2.63;;;1.92;;
21754;SDS011;11039;50.028;19.938;2023-05-01T10:51:56;3.38;;;2.28;;
21754;SDS011;11039;50.028;19.938;2023-05-01T10:56:49;4.03;;;2.25;;
21754;SDS011;11039;50.028;19.938;2023-05-01T10:59:15;3.40;;;2.05;;
21754;SDS011;11039;50.028;19.938;2023-05-01T11:01:42;4.53;;;2.30;;
21754;SDS011;11039;50.028;19.938;2023-05-01T11:12:04;3.03;;;2.30;;
21754;SDS011;11039;50.028;19.938;2023-05-01T11:15:00;2.67;;;2.10;;
21754;SDS011;11039;50.028;19.938;2023-05-01T11:17:43;3.05;;;2.08;;
21754;SDS011;11039;50.028;19.938;2023-05-01T11:20:02;3.75;;;2.40;;
21754;SDS011;11039;50.028;19.938;2023-05-01T11:22:29;4.00;;;2.50;;
21754;SDS011;11039;50.028;19.938;2023-05-01T11:24:55;3.28;;;1.95;;
21754;SDS011;11039;50.028;19.938;2023-05-01T11:27:22;2.92;;;2.00;;
21754;SDS011;11039;50.028;19.938;2023-05-01T11:29:48;2.90;;;1.98;;
21754;SDS011;11039;50.028;19.938;2023-05-01T11:32:18;2.47;;;2.00;;
21754;SDS011;11039;50.028;19.938;2023-05-01T11:34:45;2.50;;;1.92;;
21754;SDS011;11039;50.028;19.938;2023-05-01T11:37:11;3.10;;;2.00;;
21754;SDS011;11039;50.028;19.938;2023-05-01T11:39:37;2.25;;;1.83;;
21754;SDS011;11039;50.028;19.938;2023-05-01T11:42:06;2.55;;;1.80;;
21754;SDS011;11039;50.028;19.938;2023-05-01T11:44:32;2.10;;;1.80;;
21754;SDS011;11039;50.028;19.938;2023-05-01T11:46:58;2.38;;;2.00;;
21754;SDS011;11039;50.028;19.938;2023-05-01T11:49:26;3.40;;;1.83;;
21754;SDS011;11039;50.028;19.938;2023-05-01T11:51:56;2.88;;;2.00;;
21754;SDS011;11039;50.028;19.938;2023-05-01T11:54:22;3.30;;;2.30;;
21754;SDS011;11039;50.028;19.938;2023-05-01T11:56:56;3.08;;;2.08;;
21754;SDS011;11039;50.028;19.938;2023-05-01T11:59:22;2.50;;;1.92;;
21754;SDS011;11039;50.028;19.938;2023-05-01T12:01:49;2.55;;;1.77;;
21754;SDS011;11039;50.028;19.938;2023-05-01T12:04:26;3.13;;;1.85;;
21754;SDS011;11039;50.028;19.938;2023-05-01T12:06:52;2.92;;;1.90;;
21754;SDS011;11039;50.028;19.938;2023-05-01T12:09:19;2.83;;;1.95;;
21754;SDS011;11039;50.028;19.938;2023-05-01T12:11:47;2.88;;;1.85;;
21754;SDS011;11039;50.028;19.938;2023-05-01T12:14:13;2.50;;;1.75;;
21754;SDS011;11039;50.028;19.938;2023-05-01T12:16:40;2.40;;;1.73;;
21754;SDS011;11039;50.028;19.938;2023-05-01T12:19:07;2.00;;;1.75;;
21754;SDS011;11039;50.028;19.938;2023-05-01T12:21:33;1.92;;;1.70;;
21754;SDS011;11039;50.028;19.938;2023-05-01T12:24:10;2.25;;;1.70;;
21754;SDS011;11039;50.028;19.938;2023-05-01T12:26:37;1.95;;;1.70;;
21754;SDS011;11039;50.028;19.938;2023-05-01T12:29:06;2.63;;;1.70;;
21754;SDS011;11039;50.028;19.938;2023-05-01T12:31:36;2.50;;;1.80;;
21754;SDS011;11039;50.028;19.938;2023-05-01T12:34:03;3.40;;;1.95;;
21754;SDS011;11039;50.028;19.938;2023-05-01T12:36:31;2.83;;;1.80;;
21754;SDS011;11039;50.028;19.938;2023-05-01T12:38:58;2.13;;;1.70;;
21754;SDS011;11039;50.028;19.938;2023-05-01T12:41:31;2.47;;;1.70;;
21754;SDS011;11039;50.028;19.938;2023-05-01T12:43:58;2.80;;;1.80;;
21754;SDS011;11039;50.028;19.938;2023-05-01T12:46:25;2.40;;;1.88;;
21754;SDS011;11039;50.028;19.938;2023-05-01T12:48:51;2.00;;;1.70;;
21754;SDS011;11039;50.028;19.938;2023-05-01T12:51:20;2.80;;;1.90;;
21754;SDS011;11039;50.028;19.938;2023-05-01T12:53:46;2.58;;;1.80;;
21754;SDS011;11039;50.028;19.938;2023-05-01T12:56:23;2.25;;;1.60;;
21754;SDS011;11039;50.028;19.938;2023-05-01T12:58:50;2.42;;;1.67;;
21754;SDS011;11039;50.028;19.938;2023-05-01T13:01:24;3.45;;;1.70;;
21754;SDS011;11039;50.028;19.938;2023-05-01T13:03:51;3.33;;;1.65;;
21754;SDS011;11039;50.028;19.938;2023-05-01T13:06:18;2.72;;;1.77;;
21754;SDS011;11039;50.028;19.938;2023-05-01T13:08:44;2.40;;;1.85;;
21754;SDS011;11039;50.028;19.938;2023-05-01T13:11:11;1.95;;;1.52;;
21754;SDS011;11039;50.028;19.938;2023-05-01T13:13:37;1.90;;;1.67;;
21754;SDS011;11039;50.028;19.938;2023-05-01T13:16:07;2.70;;;1.70;;
21754;SDS011;11039;50.028;19.938;2023-05-01T13:18:41;2.80;;;1.63;;
21754;SDS011;11039;50.028;19.938;2023-05-01T13:21:08;2.13;;;1.58;;
21754;SDS011;11039;50.028;19.938;2023-05-01T13:23:38;2.13;;;1.63;;
21754;SDS011;11039;50.028;19.938;2023-05-01T13:26:07;3.08;;;1.95;;
21754;SDS011;11039;50.028;19.938;2023-05-01T13:28:34;2.55;;;1.85;;
21754;SDS011;11039;50.028;19.938;2023-05-01T13:31:00;2.40;;;1.50;;
21754;SDS011;11039;50.028;19.938;2023-05-01T13:33:27;2.40;;;1.88;;
21754;SDS011;11039;50.028;19.938;2023-05-01T13:35:56;2.25;;;1.60;;
21754;SDS011;11039;50.028;19.938;2023-05-01T13:38:23;1.58;;;1.40;;
21754;SDS011;11039;50.028;19.938;2023-05-01T13:40:49;2.33;;;1.63;;
21754;SDS011;11039;50.028;19.938;2023-05-01T13:43:15;1.95;;;1.60;;
21754;SDS011;11039;50.028;19.938;2023-05-01T13:45:42;1.55;;;1.35;;
21754;SDS011;11039;50.028;19.938;2023-05-01T13:48:08;1.88;;;1.52;;
21754;SDS011;11039;50.028;19.938;2023-05-01T13:50:35;3.25;;;1.60;;
21754;SDS011;11039;50.028;19.938;2023-05-01T13:53:04;2.90;;;1.90;;
21754;SDS011;11039;50.028;19.938;2023-05-01T13:55:31;1.85;;;1.50;;
21754;SDS011;11039;50.028;19.938;2023-05-01T13:57:57;2.25;;;1.63;;
21754;SDS011;11039;50.028;19.938;2023-05-01T14:00:26;2.33;;;1.60;;
21754;SDS011;11039;50.028;19.938;2023-05-01T14:02:52;2.80;;;1.80;;
21754;SDS011;11039;50.028;19.938;2023-05-01T14:05:22;1.70;;;1.50;;
21754;SDS011;11039;50.028;19.938;2023-05-01T14:07:57;2.75;;;1.65;;
21754;SDS011;11039;50.028;19.938;2023-05-01T14:10:25;2.35;;;1.50;;
21754;SDS011;11039;50.028;19.938;2023-05-01T14:12:55;2.33;;;1.60;;
21754;SDS011;11039;50.028;19.938;2023-05-01T14:15:22;3.15;;;1.90;;
21754;SDS011;11039;50.028;19.938;2023-05-01T14:17:49;2.05;;;1.65;;
21754;SDS011;11039;50.028;19.938;2023-05-01T14:20:15;1.83;;;1.40;;
21754;SDS011;11039;50.028;19.938;2023-05-01T14:25:31;2.00;;;1.42;;
21754;SDS011;11039;50.028;19.938;2023-05-01T14:27:58;2.00;;;1.50;;
21754;SDS011;11039;50.028;19.938;2023-05-01T14:30:29;1.75;;;1.30;;
21754;SDS011;11039;50.028;19.938;2023-05-01T14:32:57;1.77;;;1.40;;
21754;SDS011;11039;50.028;19.938;2023-05-01T14:35:23;2.58;;;1.60;;
21754;SDS011;11039;50.028;19.938;2023-05-01T14:37:50;2.20;;;1.67;;
21754;SDS011;11039;50.028;19.938;2023-05-01T14:40:16;2.15;;;1.60;;
21754;SDS011;11039;50.028;19.938;2023-05-01T14:42:43;2.67;;;1.70;;
21754;SDS011;11039;50.028;19.938;2023-05-01T14:45:10;1.77;;;1.45;;
21754;SDS011;11039;50.028;19.938;2023-05-01T14:47:38;1.50;;;1.40;;
21754;SDS011;11039;50.028;19.938;2023-05-01T14:50:04;1.88;;;1.55;;
21754;SDS011;11039;50.028;19.938;2023-05-01T14:52:31;2.47;;;1.60;;
21754;SDS011;11039;50.028;19.938;2023-05-01T14:54:57;2.20;;;1.88;;
21754;SDS011;11039;50.028;19.938;2023-05-01T14:57:23;2.47;;;1.65;;
21754;SDS011;11039;50.028;19.938;2023-05-01T14:59:49;2.72;;;1.58;;
21754;SDS011;11039;50.028;19.938;2023-05-01T15:02:15;2.47;;;1.63;;